Time;durP1;ratioP1;P1;durP2;ratioP2;P2;SDS_P1;SDS_P2;PMS_P1;PMS_P2;Temp;Humidity;BMP_temperature;BMP_pressure;BME280_temperature;BME280_humidity;BME280_pressure;Samples;Min_cycle;Max_cycle;Signal;HPM_P1;HPM_P2
2023/01/13 00:00:29;;;;;;;9.73;5.20;;;;;;;12.02;52.80;99694.88;1749871;111;26219;-77
2023/01/13 00:03:59;;;;;;;8.28;6.08;;;;;;;12.02;52.79;99689.66;1773698;108;25910;-77
2023/01/13 00:07:45;;;;;;;9.73;5.53;;;;;;;12.02;52.79;99707.07;1765011;109;25912;-78
2023/01/13 00:11:31;;;;;;;10.72;5.78;;;;;;;12.00;52.76;99697.90;1763211;109;26620;-78
2023/01/13 00:15:32;;;;;;;10.13;6.17;;;;;;;12.00;52.81;99688.76;1735989;111;25952;-77
2023/01/13 00:19:12;;;;;;;10.88;6.47;;;;;;;12.01;52.77;99685.70;1747169;108;25953;-78
2023/01/13 00:22:52;;;;;;;9.68;6.25;;;;;;;12.00;52.75;99685.27;1818266;105;25864;-78
2023/01/13 00:26:38;;;;;;;8.10;5.62;;;;;;;12.00;52.77;99691.80;1815154;107;25916;-78
2023/01/13 00:34:33;;;;;;;9.48;5.80;;;;;;;12.01;52.80;99689.63;1729644;110;25900;-78
2023/01/13 00:38:19;;;;;;;10.13;6.53;;;;;;;12.01;52.85;99685.70;1752075;110;26105;-79
2023/01/13 00:45:52;;;;;;;8.20;5.47;;;;;;;12.02;52.87;99682.25;1751051;109;26087;-79
2023/01/13 00:58:13;;;;;;;9.15;5.37;;;;;;;11.99;52.94;99682.23;1789579;108;25897;-78
2023/01/13 01:02:02;;;;;;;;;;;;;;;;;;;;;
2023/01/13 01:05:55;;;;;;;7.53;5.75;;;;;;;11.98;53.06;99676.55;1815873;105;26036;-78
2023/01/13 01:09:48;;;;;;;11.22;5.47;;;;;;;11.98;53.12;99671.31;1864495;104;26090;-79
2023/01/13 01:13:35;;;;;;;8.43;5.37;;;;;;;11.97;53.18;99666.97;1861998;103;26286;-77
2023/01/13 01:17:37;;;;;;;6.62;4.20;;;;;;;11.96;53.29;99659.56;1859720;102;26378;-77
2023/01/13 01:21:15;;;;;;;9.38;4.45;;;;;;;11.96;53.36;99646.94;1814436;106;25847;-78
2023/01/13 01:28:56;;;;;;;;;;;;;;;;;;;;;
2023/01/13 01:32:30;;;;;;;8.53;5.42;;;;;;;11.90;53.46;99641.23;1775305;108;26514;-77
2023/01/13 01:36:29;;;;;;;9.05;5.75;;;;;;;11.89;53.45;99643.42;1775100;110;26032;-76
2023/01/13 01:44:57;;;;;;;;;;;;;;;;;;;;;
2023/01/13 01:48:29;;;;;;;10.07;7.23;;;;;;;11.86;53.57;99623.81;1761196;106;25937;-77
2023/01/13 01:56:16;;;;;;;8.90;4.90;;;;;;;11.86;53.63;99611.19;1799034;106;25887;-78
2023/01/13 02:00:02;;;;;;;8.75;4.78;;;;;;;11.85;53.66;99602.92;1846286;104;26052;-77
2023/01/13 02:03:40;;;;;;;7.53;5.10;;;;;;;11.83;53.72;99598.50;1834549;105;26184;-78
2023/01/13 02:20:42;;;;;;;10.30;4.08;;;;;;;11.84;53.84;99578.52;1770813;110;26236;-77
2023/01/13 02:25:15;;;;;;;;;;;;;;;;;;;;;
2023/01/13 02:34:11;;;;;;;9.63;4.25;;;;;;;11.80;53.96;99585.87;1949633;99;25880;-77
2023/01/13 02:37:49;;;;;;;8.45;4.90;;;;;;;11.78;53.97;99582.39;1881753;102;25953;-76
2023/01/13 02:46:00;;;;;;;6.55;4.12;;;;;;;11.79;54.02;99567.16;1908345;101;25841;-77
2023/01/13 02:49:56;;;;;;;10.30;4.72;;;;;;;11.78;54.05;99572.81;1887833;102;25904;-77
2023/01/13 02:54:18;;;;;;;7.40;4.85;;;;;;;11.78;54.14;99574.13;1923116;99;25824;-77
2023/01/13 02:58:11;;;;;;;8.78;4.55;;;;;;;11.77;54.18;99567.13;1895553;102;25926;-76
2023/01/13 03:02:02;;;;;;;8.93;4.47;;;;;;;11.77;54.24;99563.65;1910059;100;26000;-78
2023/01/13 03:05:44;;;;;;;12.68;4.95;;;;;;;11.75;54.25;99561.48;1916150;100;25876;-77
2023/01/13 03:14:06;;;;;;;8.55;4.37;;;;;;;11.71;54.37;99559.69;1932780;100;25988;-77
2023/01/13 03:17:53;;;;;;;7.03;3.77;;;;;;;11.68;54.42;99561.01;1931683;100;25840;-77
2023/01/13 03:21:42;;;;;;;8.85;4.90;;;;;;;11.68;54.49;99553.17;1910638;101;26196;-78
2023/01/13 03:31:38;;;;;;;;;;;;;;;;;;;;;
2023/01/13 03:39:41;;;;;;;6.33;4.65;;;;;;;11.66;54.65;99549.23;1729563;110;25896;-77
2023/01/13 03:47:54;;;;;;;8.40;4.67;;;;;;;11.67;54.70;99543.14;1738908;112;26158;-77
2023/01/13 03:51:42;;;;;;;9.38;4.50;;;;;;;11.67;54.71;99539.22;1739986;112;25935;-76
2023/01/13 03:55:22;;;;;;;9.08;3.87;;;;;;;11.67;54.73;99541.83;1770203;108;26685;-77
2023/01/13 03:59:17;;;;;;;;;;;;;;;;;;;;;
2023/01/13 04:03:01;;;;;;;6.90;3.60;;;;;;;11.69;54.82;99534.02;1751438;110;25898;-77
2023/01/13 04:07:18;;;;;;;6.85;3.70;;;;;;;11.67;54.88;99540.97;1881051;99;25913;-77
2023/01/13 04:11:30;;;;;;;8.85;3.77;;;;;;;11.67;54.98;99543.14;1950943;97;25926;-76
2023/01/13 04:15:32;;;;;;;11.08;4.08;;;;;;;11.67;55.07;99537.05;1897830;102;25841;-77
2023/01/13 04:19:25;;;;;;;6.80;3.95;;;;;;;11.66;55.16;99538.79;1888908;102;25844;-78
2023/01/13 04:23:44;;;;;;;;;;;;;;;;;;;;;
2023/01/13 04:27:42;;;;;;;9.55;4.10;;;;;;;11.64;55.32;99531.80;1836891;106;26559;-77
2023/01/13 04:32:20;;;;;;;5.72;3.75;;;;;;;11.61;55.42;99528.77;1833117;106;25780;-78
2023/01/13 04:36:17;;;;;;;7.47;3.87;;;;;;;11.60;55.48;99530.92;1835363;102;25826;-77
2023/01/13 04:40:01;;;;;;;6.83;3.60;;;;;;;11.59;55.52;99533.97;1824000;104;25946;-77
2023/01/13 04:48:17;;;;;;;;;;;;;;;;;;;;;
2023/01/13 04:51:40;;;;;;;5.33;3.50;;;;;;;11.59;55.64;99520.05;1738925;110;25982;-79
2023/01/13 04:55:13;;;;;;;7.78;3.45;;;;;;;11.59;55.67;99514.38;1717423;108;25575;-79
2023/01/13 04:59:25;;;;;;;5.20;3.83;;;;;;;11.60;55.67;99523.08;1717908;112;25936;-76
2023/01/13 05:07:29;;;;;;;8.25;3.70;;;;;;;11.61;55.73;99521.34;1697968;114;25871;-77
2023/01/13 05:17:11;;;;;;;8.25;4.53;;;;;;;11.57;55.79;99518.71;1753422;110;25841;-77
2023/01/13 05:20:44;;;;;;;4.58;2.75;;;;;;;11.58;55.83;99520.48;1748372;110;25962;-78
2023/01/13 05:28:26;;;;;;;5.95;2.85;;;;;;;11.59;55.92;99522.66;1753474;110;25935;-78
2023/01/13 05:32:10;;;;;;;5.10;2.70;;;;;;;11.59;55.94;99526.13;1788546;107;25958;-77
2023/01/13 05:36:09;;;;;;;7.25;3.42;;;;;;;11.59;55.99;99519.61;1805775;106;26361;-77
2023/01/13 05:44:21;;;;;;;4.12;2.67;;;;;;;11.61;56.09;99528.77;1965658;93;25748;-77
2023/01/13 05:48:08;;;;;;;5.42;3.37;;;;;;;11.59;56.14;99521.35;2070513;93;25834;-77
2023/01/13 05:51:47;;;;;;;7.65;3.58;;;;;;;11.60;56.25;99516.55;2080078;91;25694;-76
2023/01/13 05:55:30;;;;;;;6.33;3.98;;;;;;;11.58;56.33;99530.05;2006708;96;25723;-77
2023/01/13 05:59:33;;;;;;;;;;;;;;;;;;;;;
2023/01/13 06:03:23;;;;;;;8.78;3.60;;;;;;;11.55;56.51;99527.42;1924544;101;25908;-76
2023/01/13 06:11:40;;;;;;;7.53;3.12;;;;;;;11.54;56.69;99538.30;1819339;107;26099;-76
2023/01/13 06:15:31;;;;;;;6.83;3.50;;;;;;;11.54;56.75;99544.83;1793148;108;25898;-75
2023/01/13 06:19:26;;;;;;;7.17;3.30;;;;;;;11.54;56.84;99544.83;1775853;109;25994;-77
2023/01/13 06:27:29;;;;;;;5.17;3.47;;;;;;;11.52;56.93;99544.37;1737178;111;25846;-78
2023/01/13 06:31:36;;;;;;;;;;;;;;;;;;;;;
2023/01/13 06:35:24;;;;;;;10.88;4.17;;;;;;;11.52;57.09;99548.28;1735263;111;26039;-77
2023/01/13 06:38:59;;;;;;;5.08;3.10;;;;;;;11.48;57.10;99540.00;1720827;111;25958;-75
2023/01/13 06:46:50;;;;;;;5.03;3.87;;;;;;;11.13;57.60;99544.52;1784244;106;28101;-78
2023/01/13 06:54:55;;;;;;;4.85;3.87;;;;;;;10.91;58.28;99542.17;1901579;100;25828;-78
2023/01/13 06:58:31;;;;;;;8.35;3.50;;;;;;;10.88;58.49;99541.70;1884542;103;26124;-78
2023/01/13 07:06:07;;;;;;;5.58;4.25;;;;;;;10.74;58.89;99543.32;1849348;103;26138;-76
2023/01/13 07:10:02;;;;;;;5.42;3.17;;;;;;;10.72;59.12;99541.12;1842326;105;25840;-77
2023/01/13 07:17:54;;;;;;;5.72;3.20;;;;;;;11.00;59.04;99547.88;1813565;106;26297;-78
2023/01/13 07:21:26;;;;;;;3.47;2.62;;;;;;;11.09;58.94;99544.05;1804407;107;26029;-78
2023/01/13 07:24:49;;;;;;;4.28;2.92;;;;;;;11.17;58.87;99548.02;1807533;104;26085;-76
2023/01/13 07:29:05;;;;;;;;;;;;;;;;;;;;;
2023/01/13 07:32:44;;;;;;;;;;;;;;;;;;;;;
2023/01/13 07:36:13;;;;;;;4.55;2.52;;;;;;;11.36;58.55;99547.30;1835373;105;25933;-75
2023/01/13 07:40:06;;;;;;;3.20;2.50;;;;;;;11.41;58.45;99544.74;1743888;107;25817;-76
2023/01/13 07:44:33;;;;;;;;;;;;;;;;;;;;;
2023/01/13 07:48:04;;;;;;;3.85;2.67;;;;;;;11.47;58.32;99544.75;1770411;109;25802;-76
2023/01/13 07:51:52;;;;;;;3.55;2.60;;;;;;;11.53;58.24;99546.10;1835272;104;25960;-76
2023/01/13 07:55:48;;;;;;;;;;;;;;;;;;;;;
2023/01/13 08:03:22;;;;;;;5.33;2.85;;;;;;;11.47;58.17;99550.84;1882642;103;25605;-76
2023/01/13 08:11:02;;;;;;;;;;;;;;;;;;;;;
2023/01/13 08:22:37;;;;;;;4.58;3.50;;;;;;;11.36;58.71;99555.12;1832047;106;25822;-75
2023/01/13 08:26:30;;;;;;;5.70;3.08;;;;;;;11.42;58.71;99562.14;1833752;106;25901;-80
2023/01/13 08:30:10;;;;;;;;;;;;;;;;;;;;;
2023/01/13 08:34:14;;;;;;;;;;;;;;;;;;;;;
2023/01/13 08:38:14;;;;;;;5.90;2.90;;;;;;;11.49;58.75;99559.56;1802039;107;25835;-81
2023/01/13 08:42:31;;;;;;;8.25;2.72;;;;;;;11.52;58.78;99560.90;1807799;107;26269;-80
2023/01/13 08:46:30;;;;;;;5.80;3.83;;;;;;;11.57;58.77;99553.08;1806383;107;26597;-81
2023/01/13 08:50:11;;;;;;;3.75;2.20;;;;;;;11.63;58.78;99556.17;1823997;106;25908;-80
2023/01/13 08:53:50;;;;;;;2.90;2.25;;;;;;;11.68;58.72;99561.88;1899548;100;25871;-81
2023/01/13 08:57:27;;;;;;;6.92;2.15;;;;;;;11.73;58.67;99558.84;1861583;104;25844;-79
2023/01/13 09:01:09;;;;;;;5.10;2.80;;;;;;;11.77;58.62;99558.42;1857571;105;26057;-82
2023/01/13 09:05:06;;;;;;;6.25;2.20;;;;;;;11.81;58.59;99565.00;1858312;104;25976;-82
2023/01/13 09:08:49;;;;;;;7.60;2.92;;;;;;;11.84;58.49;99569.38;1914265;101;25824;-80
2023/01/13 09:16:45;;;;;;;5.10;2.77;;;;;;;11.91;58.41;99557.22;1860071;104;25896;-81
2023/01/13 09:20:41;;;;;;;3.52;2.00;;;;;;;11.94;58.30;99563.77;1859129;103;26581;-81
2023/01/13 09:24:12;;;;;;;3.22;2.27;;;;;;;11.90;58.26;99558.09;1768052;109;26327;-80
2023/01/13 09:28:14;;;;;;;3.52;2.35;;;;;;;11.93;58.23;99559.42;1766038;109;26522;-82
2023/01/13 09:31:55;;;;;;;;;;;;;;;;;;;;;
2023/01/13 09:35:39;;;;;;;3.77;2.58;;;;;;;11.91;58.11;99558.09;1800734;106;25808;-76
2023/01/13 09:39:10;;;;;;;4.92;2.62;;;;;;;11.97;58.03;99555.95;1816385;106;25897;-81
2023/01/13 09:46:46;;;;;;;3.83;2.70;;;;;;;12.08;57.77;99542.93;1807973;107;25982;-79
2023/01/13 09:50:47;;;;;;;4.03;2.70;;;;;;;12.10;57.71;99536.86;1803301;108;25845;-82
2023/01/13 09:54:37;;;;;;;2.77;2.42;;;;;;;12.12;57.63;99540.36;1779254;107;26195;-82
2023/01/13 09:58:20;;;;;;;4.35;3.27;;;;;;;12.16;57.51;99534.71;1777133;108;26175;-80
2023/01/13 10:02:08;;;;;;;3.27;2.65;;;;;;;12.18;57.42;99539.08;1851239;103;25867;-77
2023/01/13 10:06:15;;;;;;;4.47;2.90;;;;;;;12.23;57.31;99530.81;1944372;98;26003;-78
2023/01/13 10:10:07;;;;;;;6.87;4.00;;;;;;;12.27;57.15;99530.38;1981959;97;25885;-76
2023/01/13 10:13:42;;;;;;;8.25;3.37;;;;;;;12.26;57.10;99531.26;1894622;102;25789;-76
2023/01/13 10:18:02;;;;;;;4.83;2.87;;;;;;;12.25;57.03;99523.86;1873693;102;25903;-81
2023/01/13 10:22:07;;;;;;;3.62;2.67;;;;;;;12.12;57.01;99517.28;1920384;100;25842;-80
2023/01/13 10:26:13;;;;;;;5.45;3.35;;;;;;;12.00;57.21;99511.56;1920171;98;26059;-80
2023/01/13 10:30:29;;;;;;;5.85;3.35;;;;;;;11.97;57.26;99507.63;1922418;100;26152;-79
2023/01/13 10:34:29;;;;;;;;;;;;;;;;;;;;;
2023/01/13 10:38:21;;;;;;;;;;;;;;;;;;;;;
2023/01/13 10:42:24;;;;;;;;;;;;;;;;;;;;;
2023/01/13 10:46:24;;;;;;;3.42;2.80;;;;;;;12.23;57.72;99495.97;1960072;99;26497;-80
2023/01/13 10:50:33;;;;;;;3.90;2.62;;;;;;;12.15;57.67;99497.27;1957813;98;25863;-79
2023/01/13 10:54:25;;;;;;;4.20;2.98;;;;;;;12.15;57.50;99492.44;1955757;98;26007;-81
2023/01/13 11:01:54;;;;;;;;;;;;;;;;;;;;;
2023/01/13 11:05:41;;;;;;;5.12;3.00;;;;;;;12.13;57.44;99495.50;1910773;101;25545;-83
2023/01/13 11:09:29;;;;;;;5.20;3.10;;;;;;;12.20;57.47;99498.56;1845808;104;26260;-83
2023/01/13 11:18:14;;;;;;;5.90;3.05;;;;;;;12.28;57.26;99483.36;1798857;106;25848;-84
2023/01/13 11:22:37;;;;;;;;;;;;;;;;;;;;;
2023/01/13 11:26:26;;;;;;;5.03;3.27;;;;;;;12.47;57.15;99493.84;1834695;106;25791;-84
2023/01/13 11:34:51;;;;;;;;;;;;;;;;;;;;;
2023/01/13 11:38:29;;;;;;;;;;;;;;;;;;;;;
2023/01/13 11:46:31;;;;;;;3.35;2.83;;;;;;;12.63;56.51;99481.67;1661646;117;26006;-84
2023/01/13 12:19:24;;;;;;;;;;;;;;;;;;;;;
2023/01/13 12:38:51;;;;;;;;;;;;;;;;;;;;;
2023/01/13 12:49:14;;;;;;;;;;;;;;;;;;;;;
2023/01/13 12:53:12;;;;;;;4.47;3.10;;;;;;;12.80;55.40;99467.30;1731833;111;26581;-84
2023/01/13 12:57:39;;;;;;;5.22;3.12;;;;;;;12.86;55.35;99456.39;1779967;107;26146;-84
2023/01/13 13:01:52;;;;;;;6.33;2.67;;;;;;;12.91;55.24;99453.77;1707551;111;25973;-84
2023/01/13 13:06:51;;;;;;;5.67;3.62;;;;;;;12.91;55.24;99460.30;1763236;110;26588;-83
2023/01/13 13:10:54;;;;;;;;;;;;;;;;;;;;;
2023/01/13 13:15:05;;;;;;;;;;;;;;;;;;;;;
2023/01/13 13:36:40;;;;;;;9.95;3.35;;;;;;;12.75;55.22;99481.21;1725935;111;26011;-84
2023/01/13 13:58:24;;;;;;;4.30;2.75;;;;;;;12.73;55.33;99495.19;1772809;109;26113;-84
2023/01/13 14:02:11;;;;;;;3.72;2.85;;;;;;;12.70;55.36;99489.51;1772996;107;26676;-83
2023/01/13 14:06:24;;;;;;;7.45;2.98;;;;;;;12.71;55.41;99483.40;1803948;106;25996;-84
2023/01/13 14:10:06;;;;;;;9.63;3.80;;;;;;;12.72;55.44;99487.78;1820274;106;26093;-83
2023/01/13 14:14:13;;;;;;;5.75;4.37;;;;;;;12.77;55.46;99489.08;1815405;107;25923;-84
2023/01/13 14:18:25;;;;;;;;;;;;;;;;;;;;;
2023/01/13 14:27:06;;;;;;;;;;;;;;;;;;;;;
2023/01/13 14:30:49;;;;;;;5.00;2.52;;;;;;;12.98;56.41;99501.28;1751747;107;25935;-83
2023/01/13 14:34:29;;;;;;;3.90;3.20;;;;;;;13.08;56.42;99500.84;1743710;109;26159;-83
2023/01/13 14:38:13;;;;;;;5.47;2.80;;;;;;;13.10;56.26;99482.10;1724364;112;25950;-82
2023/01/13 14:46:29;;;;;;;;;;;;;;;;;;;;;
2023/01/13 14:56:11;;;;;;;3.77;2.52;;;;;;;13.13;56.11;99497.36;1671055;115;26319;-83
2023/01/13 15:00:27;;;;;;;4.95;2.80;;;;;;;13.13;56.03;99493.88;1675624;115;26595;-83
2023/01/13 15:08:53;;;;;;;;;;;;;;;;;;;;;
2023/01/13 15:13:01;;;;;;;;;;;;;;;;;;;;;
2023/01/13 15:17:01;;;;;;;;;;;;;;;;;;;;;
2023/01/13 15:20:36;;;;;;;4.58;2.62;;;;;;;13.12;55.79;99494.28;1679382;114;26614;-83
2023/01/13 15:37:42;;;;;;;5.12;2.80;;;;;;;13.15;55.67;99480.33;1631609;119;26643;-83
2023/01/13 16:13:44;;;;;;;;;;;;;;;;;;;;;
2023/01/13 16:43:12;;;;;;;;;;;;;;;;;;;;;
2023/01/13 16:47:24;;;;;;;;;;;;;;;;;;;;;
2023/01/13 16:50:45;;;;;;;6.00;3.57;;;;;;;13.20;55.70;99500.41;1581440;122;26010;-82
2023/01/13 16:54:16;;;;;;;5.28;4.10;;;;;;;13.20;55.61;99504.77;1552459;123;25947;-81
2023/01/13 17:01:45;;;;;;;4.62;3.62;;;;;;;13.22;55.49;99508.23;1590509;120;25922;-85
2023/01/13 17:05:26;;;;;;;9.80;3.58;;;;;;;13.21;55.46;99499.96;1596355;120;26660;-83
2023/01/13 17:09:16;;;;;;;;;;;;;;;;;;;;;
2023/01/13 17:30:55;;;;;;;6.58;3.92;;;;;;;13.24;55.25;99518.31;1701280;113;25851;-84
2023/01/13 17:34:48;;;;;;;6.30;4.45;;;;;;;13.22;55.24;99521.32;1677921;115;26571;-84
2023/01/13 17:44:24;;;;;;;4.78;4.00;;;;;;;13.20;55.26;99525.70;1681153;115;26706;-83
2023/01/13 17:59:47;;;;;;;;;;;;;;;;;;;;;
2023/01/13 18:03:27;;;;;;;5.05;3.58;;;;;;;13.22;55.42;99531.80;1642969;114;25965;-84
2023/01/13 18:07:07;;;;;;;5.72;3.33;;;;;;;13.22;55.50;99533.97;1636763;116;26035;-81
2023/01/13 18:11:18;;;;;;;4.03;2.80;;;;;;;13.22;55.58;99531.35;1692577;113;26454;-81
2023/01/13 18:15:07;;;;;;;10.40;3.52;;;;;;;13.24;55.61;99527.47;1722293;112;26435;-82
2023/01/13 18:18:59;;;;;;;;;;;;;;;;;;;;;
2023/01/13 18:30:33;;;;;;;7.47;3.98;;;;;;;13.26;55.77;99532.70;1678990;115;26046;-81
2023/01/13 18:34:22;;;;;;;5.72;4.03;;;;;;;13.26;55.78;99540.11;1707314;112;25965;-83
2023/01/13 18:38:09;;;;;;;4.53;3.25;;;;;;;13.25;55.79;99538.38;1710582;112;26158;-83
2023/01/13 18:45:45;;;;;;;5.17;4.15;;;;;;;13.26;55.81;99545.78;1695447;111;26007;-84
2023/01/13 18:53:35;;;;;;;6.12;4.17;;;;;;;13.28;55.80;99558.00;1667798;116;25898;-83
2023/01/13 19:02:33;;;;;;;4.75;4.17;;;;;;;13.28;55.81;99560.63;1602804;122;26151;-86
2023/01/13 19:06:30;;;;;;;6.90;5.00;;;;;;;13.29;55.81;99565.41;1605213;120;26306;-88
2023/01/13 19:10:31;;;;;;;7.17;4.87;;;;;;;13.28;55.83;99565.85;1574742;119;26622;-88
2023/01/13 19:32:10;;;;;;;;;;;;;;;;;;;;;
2023/01/13 19:35:41;;;;;;;12.37;6.42;;;;;;;13.19;55.97;99582.83;1661395;114;25989;-81
2023/01/13 19:39:11;;;;;;;10.65;6.90;;;;;;;13.18;56.02;99575.86;1674330;114;25962;-80
2023/01/13 19:50:58;;;;;;;;;;;;;;;;;;;;;
2023/01/13 19:55:26;;;;;;;6.28;5.50;;;;;;;13.17;56.12;99595.06;1660717;115;26159;-84
2023/01/13 19:59:05;;;;;;;8.63;5.70;;;;;;;13.16;56.14;99591.58;1722864;113;26829;-84
2023/01/13 20:06:46;;;;;;;7.85;5.78;;;;;;;13.18;56.15;99606.82;1730375;111;26814;-83
2023/01/13 20:10:30;;;;;;;;;;;;;;;13.20;56.13;99610.77;1729875;111;25982;-83
2023/01/13 20:14:25;;;;;;;;;;;;;;;;;;;;;
2023/01/13 20:18:44;;;;;;;7.00;4.92;;;;;;;13.20;56.12;99612.08;1788061;107;25844;-85
2023/01/13 20:22:16;;;;;;;5.87;5.28;;;;;;;13.21;56.10;99626.45;1747613;111;25954;-85
2023/01/13 20:26:19;;;;;;;;;;;;;;;;;;;;;
2023/01/13 20:30:13;;;;;;;6.42;5.08;;;;;;;13.23;56.08;99626.47;1749706;111;25966;-85
2023/01/13 20:33:55;;;;;;;;;;;;;;;;;;;;;
2023/01/13 20:38:20;;;;;;;9.70;6.00;;;;;;;13.26;56.07;99636.08;1673881;116;26085;-84
2023/01/13 20:42:38;;;;;;;7.28;5.10;;;;;;;13.26;56.07;99640.88;1637782;118;26143;-85
2023/01/13 20:46:08;;;;;;;8.30;4.60;;;;;;;13.27;56.06;99639.16;1594636;120;26026;-85
2023/01/13 20:50:17;;;;;;;6.72;4.70;;;;;;;13.27;56.05;99647.02;1608215;119;26088;-86
2023/01/13 20:53:37;;;;;;;8.70;5.20;;;;;;;13.29;56.04;99651.80;1608649;120;26018;-78
2023/01/13 20:57:40;;;;;;;6.00;4.28;;;;;;;13.28;56.03;99657.91;1613851;120;25993;-80
2023/01/13 21:01:24;;;;;;;5.15;4.55;;;;;;;13.29;56.00;99649.17;1666918;116;25955;-78
2023/01/13 21:04:56;;;;;;;5.25;3.80;;;;;;;13.30;56.02;99661.41;1654012;117;25838;-81
2023/01/13 21:08:55;;;;;;;5.35;4.22;;;;;;;13.29;56.02;99659.20;1629352;119;26015;-79
2023/01/13 21:16:21;;;;;;;6.17;4.80;;;;;;;13.27;56.02;99666.64;1679160;115;25997;-81
2023/01/13 21:23:59;;;;;;;4.85;4.03;;;;;;;13.26;56.05;99674.91;1615028;119;25962;-78
2023/01/13 21:27:52;;;;;;;4.80;4.17;;;;;;;13.27;56.06;99671.88;1619556;120;26012;-80
2023/01/13 21:31:38;;;;;;;5.83;3.75;;;;;;;13.27;56.07;99664.89;1686257;116;25988;-78
2023/01/13 21:35:09;;;;;;;4.55;4.00;;;;;;;13.27;56.05;99674.06;1704107;112;26035;-81
2023/01/13 21:38:40;;;;;;;6.28;3.35;;;;;;;13.26;56.07;99680.14;1678440;114;25753;-80
2023/01/13 21:50:26;;;;;;;6.70;4.10;;;;;;;13.25;56.09;99684.95;1670730;114;26719;-79
2023/01/13 21:54:12;;;;;;;7.17;3.77;;;;;;;13.23;56.08;99687.98;1704075;112;26060;-79
2023/01/13 21:57:50;;;;;;;5.60;4.08;;;;;;;13.22;56.11;99680.53;1726762;111;25882;-79
2023/01/13 22:01:18;;;;;;;3.85;3.45;;;;;;;13.22;56.11;99691.45;1729593;111;25637;-79
2023/01/13 22:05:07;;;;;;;4.37;3.35;;;;;;;13.21;56.15;99689.27;1713771;108;25876;-79
2023/01/13 22:08:41;;;;;;;;;;;;;;;;;;;;;
2023/01/13 22:16:48;;;;;;;;;;;;;;;;;;;;;
2023/01/13 22:20:29;;;;;;;4.00;3.60;;;;;;;13.19;56.10;99701.91;1858620;103;25881;-80
2023/01/13 22:24:12;;;;;;;4.45;3.15;;;;;;;13.15;56.14;99697.11;1887737;101;25940;-80
2023/01/13 22:27:49;;;;;;;5.67;3.50;;;;;;;13.15;56.17;99701.03;1820135;105;26018;-89
2023/01/13 22:31:30;;;;;;;3.72;3.12;;;;;;;13.12;56.14;99699.71;1817887;104;25884;-81
2023/01/13 22:35:20;;;;;;;6.60;3.80;;;;;;;13.11;56.17;99710.19;1824214;107;25948;-82
2023/01/13 22:39:03;;;;;;;;;;;;;;;13.10;56.20;99716.30;1805079;108;25816;-85
2023/01/13 22:43:00;;;;;;;4.40;3.60;;;;;;;13.07;56.18;99717.16;1835638;105;26152;-84
2023/01/13 22:51:17;;;;;;;5.12;3.77;;;;;;;13.04;56.25;99726.75;1691547;112;25946;-80
2023/01/13 22:54:57;;;;;;;6.00;4.20;;;;;;;13.02;56.28;99731.95;1699288;113;26561;-80
2023/01/13 22:58:58;;;;;;;4.58;3.70;;;;;;;13.00;56.28;99732.41;1688429;115;26123;-81
2023/01/13 23:03:10;;;;;;;4.00;3.60;;;;;;;12.98;56.28;99738.92;1666020;111;25913;-80
2023/01/13 23:06:38;;;;;;;6.95;3.67;;;;;;;12.97;56.29;99737.19;1701112;113;25814;-80
2023/01/13 23:10:05;;;;;;;4.22;3.52;;;;;;;12.95;56.31;99739.35;1723582;109;25919;-82
2023/01/13 23:13:59;;;;;;;5.00;3.45;;;;;;;12.92;56.23;99741.95;1686131;114;26099;-81
2023/01/13 23:17:36;;;;;;;3.77;3.35;;;;;;;12.91;56.27;99742.83;1743337;111;25943;-82
2023/01/13 23:21:15;;;;;;;4.10;3.70;;;;;;;12.88;56.27;99735.84;1727538;110;25764;-83
2023/01/13 23:25:15;;;;;;;;;;;;;;;;;;;;;
2023/01/13 23:30:15;;;;;;;6.08;3.90;;;;;;;12.85;56.30;99742.36;1740356;111;25978;-82
2023/01/13 23:34:07;;;;;;;6.17;3.60;;;;;;;12.83;56.30;99748.48;1741041;111;26622;-82
2023/01/13 23:37:58;;;;;;;;;;;;;;;;;;;;;
2023/01/13 23:41:39;;;;;;;;;;;;;;;12.78;56.37;99749.75;1753360;109;25816;-80
2023/01/13 23:45:19;;;;;;;4.12;3.37;;;;;;;12.76;56.36;99746.27;1708333;113;25863;-83
2023/01/13 23:48:54;;;;;;;4.83;3.47;;;;;;;12.74;56.42;99744.94;1688582;113;25929;-82
2023/01/13 23:52:37;;;;;;;5.15;3.50;;;;;;;12.72;56.42;99748.00;1712489;111;25943;-83
2023/01/13 23:56:25;;;;;;;4.03;3.10;;;;;;;12.72;56.44;99748.41;1744259;110;25826;-83
2023/01/13 23:59:59;;;;;;;4.35;3.92;;;;;;;12.70;56.43;99753.64;1709817;111;25908;-82
